createdAt,value
2023-10-23T00:01:14.072Z,9.87
2023-10-23T00:03:42.310Z,10.10
2023-10-23T00:06:09.218Z,7.47
2023-10-23T00:08:35.946Z,6.73
2023-10-23T00:11:02.568Z,4.73
2023-10-23T00:13:29.238Z,7.37
2023-10-23T00:15:56.042Z,8.67
2023-10-23T00:18:22.922Z,7.70
2023-10-23T00:20:49.686Z,5.57
2023-10-23T00:23:16.354Z,12.17
2023-10-23T00:25:43.006Z,8.60
2023-10-23T00:28:09.632Z,9.03
2023-10-23T00:30:37.265Z,5.87
2023-10-23T00:33:04.381Z,8.50
2023-10-23T00:35:31.132Z,7.07
2023-10-23T00:37:58.528Z,7.87
2023-10-23T00:40:25.598Z,7.43
2023-10-23T00:42:52.421Z,5.27
2023-10-23T00:45:19.303Z,5.17
2023-10-23T00:47:46.227Z,4.70
2023-10-23T00:50:14.089Z,5.40
2023-10-23T00:52:41.094Z,7.47
2023-10-23T00:55:08.083Z,6.20
2023-10-23T00:57:34.804Z,10.93
2023-10-23T01:00:01.691Z,10.77
2023-10-23T01:02:29.491Z,5.93
2023-10-23T01:04:56.245Z,9.30
2023-10-23T01:07:23.280Z,10.83
2023-10-23T01:09:50.080Z,6.97
2023-10-23T01:12:16.842Z,9.17
2023-10-23T01:14:43.580Z,5.70
2023-10-23T01:17:10.241Z,6.07
2023-10-23T01:19:36.907Z,6.37
2023-10-23T01:22:03.514Z,4.07
2023-10-23T01:24:33.986Z,7.00
2023-10-23T01:27:00.640Z,3.60
2023-10-23T01:29:27.358Z,9.50
2023-10-23T01:31:53.990Z,5.33
2023-10-23T01:34:21.136Z,7.60
2023-10-23T01:36:47.822Z,5.13
2023-10-23T01:39:14.513Z,7.50
2023-10-23T01:41:41.335Z,6.30
2023-10-23T01:44:08.302Z,3.67
2023-10-23T01:46:35.059Z,7.03
2023-10-23T01:49:01.760Z,9.90
2023-10-23T01:51:28.512Z,5.40
2023-10-23T01:53:56.150Z,6.17
2023-10-23T01:56:22.832Z,3.43
2023-10-23T01:58:49.506Z,8.67
2023-10-23T02:01:23.754Z,5.00
2023-10-23T02:03:51.592Z,7.83
2023-10-23T02:06:18.675Z,5.83
2023-10-23T02:08:45.580Z,4.00
2023-10-23T02:11:12.364Z,4.60
2023-10-23T02:13:39.234Z,3.57
2023-10-23T02:16:06.255Z,6.47
2023-10-23T02:18:33.781Z,6.27
2023-10-23T02:21:01.100Z,4.50
2023-10-23T02:23:29.556Z,5.67
2023-10-23T02:26:00.956Z,5.93
2023-10-23T02:28:28.377Z,6.40
2023-10-23T02:30:55.730Z,4.73
2023-10-23T02:33:22.570Z,3.43
2023-10-23T02:35:49.368Z,5.40
2023-10-23T02:38:16.075Z,9.93
2023-10-23T02:40:51.434Z,4.03
2023-10-23T02:43:18.262Z,5.40
2023-10-23T02:45:44.925Z,8.50
2023-10-23T02:48:12.081Z,5.67
2023-10-23T02:50:38.968Z,6.60
2023-10-23T02:53:07.176Z,4.40
2023-10-23T02:55:33.877Z,6.40
2023-10-23T02:58:01.495Z,5.20
2023-10-23T03:00:28.437Z,4.80
2023-10-23T03:02:55.229Z,3.70
2023-10-23T03:05:22.162Z,3.70
2023-10-23T03:07:48.693Z,5.37
2023-10-23T03:10:15.243Z,4.20
2023-10-23T03:12:42.446Z,6.60
2023-10-23T03:15:09.319Z,4.60
2023-10-23T03:17:36.053Z,3.80
2023-10-23T03:20:04.034Z,5.00
2023-10-23T03:22:30.798Z,8.23
2023-10-23T03:24:58.341Z,5.23
2023-10-23T03:27:24.993Z,7.17
2023-10-23T03:29:51.568Z,4.80
2023-10-23T03:32:18.196Z,5.37
2023-10-23T03:34:45.584Z,7.03
2023-10-23T03:37:12.168Z,5.10
2023-10-23T03:39:40.742Z,3.50
2023-10-23T03:42:07.687Z,6.23
2023-10-23T03:44:34.434Z,5.07
2023-10-23T03:47:02.254Z,5.57
2023-10-23T03:49:29.325Z,5.20
2023-10-23T03:51:55.925Z,5.17
2023-10-23T03:54:22.638Z,5.53
2023-10-23T03:56:49.539Z,7.17
2023-10-23T03:59:16.080Z,5.63
2023-10-23T04:01:42.666Z,6.57
2023-10-23T04:04:09.964Z,5.43
2023-10-23T04:06:40.354Z,2.70
2023-10-23T04:09:07.831Z,6.70
2023-10-23T04:11:34.522Z,4.17
2023-10-23T04:14:01.165Z,5.57
2023-10-23T04:16:27.863Z,3.87
2023-10-23T04:18:54.492Z,4.20
2023-10-23T04:21:22.103Z,4.37
2023-10-23T04:23:48.692Z,4.60
2023-10-23T04:26:15.208Z,3.33
2023-10-23T04:28:42.008Z,4.00
2023-10-23T04:31:08.687Z,4.77
2023-10-23T04:33:35.505Z,4.03
2023-10-23T04:36:02.473Z,4.97
2023-10-23T04:38:29.665Z,8.80
2023-10-23T04:40:56.306Z,4.93
2023-10-23T04:43:23.160Z,3.80
2023-10-23T04:45:49.964Z,4.73
2023-10-23T04:48:16.771Z,7.50
2023-10-23T04:50:43.468Z,4.40
2023-10-23T04:53:10.144Z,6.87
2023-10-23T04:55:39.560Z,7.60
2023-10-23T04:58:07.691Z,5.13
2023-10-23T05:00:39.526Z,3.33
2023-10-23T05:03:06.893Z,6.47
2023-10-23T05:05:34.303Z,7.23
2023-10-23T05:08:01.316Z,7.33
2023-10-23T05:10:27.966Z,7.23
2023-10-23T05:12:54.953Z,5.07
2023-10-23T05:15:21.696Z,9.43
2023-10-23T05:17:48.252Z,7.60
2023-10-23T05:20:14.975Z,5.83
2023-10-23T05:22:41.719Z,8.10
2023-10-23T05:25:11.904Z,8.50
2023-10-23T05:27:38.558Z,6.63
2023-10-23T05:30:06.112Z,7.97
2023-10-23T05:32:35.743Z,6.83
2023-10-23T05:35:05.020Z,5.00
2023-10-23T05:37:34.440Z,7.63
2023-10-23T05:40:00.950Z,5.27
2023-10-23T05:42:27.497Z,6.03
2023-10-23T05:44:54.006Z,7.00
2023-10-23T05:47:20.524Z,4.27
2023-10-23T05:49:47.020Z,5.40
2023-10-23T05:52:13.516Z,3.47
2023-10-23T05:54:40.186Z,10.37
2023-10-23T05:57:06.772Z,6.67
2023-10-23T05:59:33.623Z,6.13
2023-10-23T06:02:00.132Z,9.03
2023-10-23T06:04:27.006Z,4.33
2023-10-23T06:06:53.869Z,6.70
2023-10-23T06:09:20.427Z,7.77
2023-10-23T06:11:46.943Z,10.13
2023-10-23T06:14:13.503Z,11.27
2023-10-23T06:16:40.052Z,13.07
2023-10-23T06:19:07.070Z,11.73
2023-10-23T06:21:33.691Z,10.40
2023-10-23T06:24:00.354Z,8.30
2023-10-23T06:26:29.575Z,7.17
2023-10-23T06:28:57.091Z,7.43
2023-10-23T06:31:23.639Z,12.50
2023-10-23T06:33:52.290Z,9.47
2023-10-23T06:36:19.022Z,8.67
2023-10-23T06:38:45.561Z,8.73
2023-10-23T06:41:12.070Z,11.87
2023-10-23T06:43:38.825Z,11.37
2023-10-23T06:46:05.660Z,8.03
2023-10-23T06:48:32.553Z,9.90
2023-10-23T06:50:59.961Z,8.50
2023-10-23T06:53:26.840Z,6.50
2023-10-23T06:55:55.783Z,11.20
2023-10-23T06:58:22.728Z,11.20
2023-10-23T07:00:49.598Z,7.93
2023-10-23T07:03:16.524Z,8.27
2023-10-23T07:05:43.579Z,7.90
2023-10-23T07:08:10.389Z,7.77
2023-10-23T07:10:37.630Z,8.57
2023-10-23T07:13:11.244Z,8.90
2023-10-23T07:15:46.105Z,6.57
2023-10-23T07:18:12.798Z,7.63
2023-10-23T07:20:39.437Z,8.73
2023-10-23T07:23:06.003Z,8.87
2023-10-23T07:25:32.529Z,6.47
2023-10-23T07:27:59.468Z,10.77
2023-10-23T07:30:26.220Z,6.30
2023-10-23T07:32:52.856Z,9.70
2023-10-23T07:35:19.448Z,10.00
2023-10-23T07:37:46.010Z,9.63
2023-10-23T07:40:12.806Z,7.77
2023-10-23T07:42:39.447Z,10.27
2023-10-23T07:45:06.846Z,7.70
2023-10-23T07:47:33.443Z,11.27
2023-10-23T07:49:59.983Z,12.53
2023-10-23T07:52:26.548Z,9.97
2023-10-23T07:54:54.211Z,9.37
2023-10-23T07:57:20.739Z,7.97
2023-10-23T07:59:47.638Z,11.47
2023-10-23T08:02:14.195Z,9.17
2023-10-23T08:04:41.381Z,12.50
2023-10-23T08:07:08.191Z,13.23
2023-10-23T08:09:36.154Z,13.27
2023-10-23T08:12:02.734Z,21.70
2023-10-23T08:14:29.294Z,18.77
2023-10-23T08:16:55.964Z,19.37
2023-10-23T08:19:22.793Z,19.73
2023-10-23T08:21:49.442Z,19.47
2023-10-23T08:24:16.526Z,9.93
2023-10-23T08:26:43.179Z,11.53
2023-10-23T08:29:09.744Z,12.17
2023-10-23T08:31:40.065Z,12.53
2023-10-23T08:34:08.545Z,12.63
2023-10-23T08:36:35.734Z,9.57
2023-10-23T08:39:04.095Z,14.27
2023-10-23T08:41:32.132Z,11.27
2023-10-23T08:43:58.873Z,11.70
2023-10-23T08:46:27.221Z,14.40
2023-10-23T08:48:53.981Z,9.47
2023-10-23T08:51:20.795Z,11.97
2023-10-23T08:54:08.750Z,10.97
2023-10-23T08:56:38.769Z,12.10
2023-10-23T08:59:05.832Z,14.30
2023-10-23T09:01:37.408Z,14.97
2023-10-23T09:04:06.380Z,11.60
2023-10-23T09:06:36.903Z,13.57
2023-10-23T09:09:06.263Z,13.80
2023-10-23T09:11:48.049Z,11.13
2023-10-23T09:14:29.101Z,9.40
2023-10-23T09:16:58.150Z,17.37
2023-10-23T09:19:39.060Z,11.50
2023-10-23T09:22:08.010Z,11.50
2023-10-23T09:24:34.965Z,11.17
2023-10-23T09:27:01.586Z,11.60
2023-10-23T09:29:28.871Z,12.40
2023-10-23T09:31:58.689Z,16.23
2023-10-23T09:34:26.196Z,11.33
2023-10-23T09:36:53.932Z,11.43
2023-10-23T09:39:23.537Z,12.97
2023-10-23T09:41:50.710Z,13.77
2023-10-23T09:44:18.205Z,11.07
2023-10-23T09:46:47.093Z,11.47
2023-10-23T09:49:13.895Z,9.87
2023-10-23T09:51:41.102Z,10.10
2023-10-23T09:54:20.796Z,11.00
2023-10-23T09:56:50.368Z,12.30
2023-10-23T09:59:19.346Z,14.50
2023-10-23T10:01:50.281Z,9.00
2023-10-23T10:04:33.597Z,9.57
2023-10-23T10:07:08.865Z,8.67
2023-10-23T10:09:35.793Z,12.23
2023-10-23T10:12:04.809Z,11.10
2023-10-23T10:14:32.628Z,11.53
2023-10-23T10:17:01.779Z,8.87
2023-10-23T10:19:28.569Z,12.63
2023-10-23T10:22:14.334Z,10.70
2023-10-23T10:24:42.156Z,12.73
2023-10-23T10:27:09.999Z,9.80
2023-10-23T10:29:36.546Z,12.10
2023-10-23T10:32:12.023Z,11.80
2023-10-23T10:34:55.705Z,12.57
2023-10-23T10:37:26.411Z,8.33
2023-10-23T10:40:04.795Z,6.70
2023-10-23T10:42:35.717Z,8.10
2023-10-23T10:45:11.273Z,6.27
2023-10-23T10:47:39.927Z,9.87
2023-10-23T10:50:07.732Z,5.63
2023-10-23T10:52:36.660Z,8.87
2023-10-23T10:55:11.896Z,6.50
2023-10-23T10:57:44.485Z,9.17
2023-10-23T11:00:12.576Z,7.33
2023-10-23T11:02:41.028Z,6.27
2023-10-23T11:05:12.382Z,6.30
2023-10-23T11:07:40.165Z,6.87
2023-10-23T11:10:08.427Z,6.23
2023-10-23T11:12:35.477Z,6.50
2023-10-23T11:15:02.144Z,6.13
2023-10-23T11:17:30.151Z,6.97
2023-10-23T11:19:57.085Z,8.90
2023-10-23T11:22:25.321Z,6.00
2023-10-23T11:24:52.760Z,3.73
2023-10-23T11:27:19.722Z,6.70
2023-10-23T11:29:48.515Z,7.40
2023-10-23T11:32:17.049Z,8.50
2023-10-23T11:34:44.793Z,7.77
2023-10-23T11:37:12.665Z,5.53
2023-10-23T11:39:44.146Z,9.57
2023-10-23T11:42:11.827Z,3.67
2023-10-23T11:44:43.041Z,5.53
2023-10-23T11:47:10.805Z,6.60
2023-10-23T11:49:37.811Z,9.37
2023-10-23T11:52:05.447Z,7.50
2023-10-23T11:54:32.534Z,6.23
2023-10-23T11:57:00.522Z,6.63
2023-10-23T11:59:28.132Z,9.03
2023-10-23T12:01:58.450Z,6.27
2023-10-23T12:04:29.719Z,5.23
2023-10-23T12:07:02.344Z,5.03
2023-10-23T12:09:38.852Z,5.37
2023-10-23T12:12:06.223Z,7.50
2023-10-23T12:14:33.288Z,5.73
2023-10-23T12:17:00.061Z,6.60
2023-10-23T12:19:27.216Z,4.60
2023-10-23T12:21:54.237Z,4.93
2023-10-23T12:24:21.437Z,6.03
2023-10-23T12:26:48.877Z,6.87
2023-10-23T12:29:16.537Z,6.43
2023-10-23T12:32:00.707Z,4.57
2023-10-23T12:34:32.029Z,5.10
2023-10-23T12:36:59.394Z,8.07
2023-10-23T12:39:26.766Z,5.27
2023-10-23T12:41:53.463Z,4.73
2023-10-23T12:44:20.097Z,5.03
2023-10-23T12:46:51.241Z,7.03
2023-10-23T12:49:18.406Z,5.43
2023-10-23T12:51:45.150Z,3.63
2023-10-23T12:54:12.203Z,5.00
2023-10-23T12:56:39.151Z,6.30
2023-10-23T12:59:06.314Z,2.97
2023-10-23T13:01:33.129Z,5.60
2023-10-23T13:04:01.103Z,3.03
2023-10-23T13:06:27.968Z,4.60
2023-10-23T13:08:54.690Z,5.13
2023-10-23T13:11:21.391Z,7.83
2023-10-23T13:13:48.248Z,5.13
2023-10-23T13:16:16.104Z,4.10
2023-10-23T13:18:53.956Z,4.50
2023-10-23T13:21:29.851Z,2.63
2023-10-23T13:24:01.412Z,5.47
2023-10-23T13:26:28.035Z,3.03
2023-10-23T13:28:54.656Z,6.37
2023-10-23T13:31:21.350Z,3.97
2023-10-23T13:33:48.450Z,5.37
2023-10-23T13:36:15.451Z,4.50
2023-10-23T13:38:42.299Z,4.70
2023-10-23T13:41:08.957Z,4.83
2023-10-23T13:43:35.705Z,7.43
2023-10-23T13:46:02.662Z,6.77
2023-10-23T13:48:29.641Z,10.17
2023-10-23T13:50:56.605Z,7.27
2023-10-23T13:53:24.205Z,7.40
2023-10-23T13:55:51.977Z,6.07
2023-10-23T13:58:19.651Z,6.10
2023-10-23T14:00:46.796Z,8.37
2023-10-23T14:03:13.704Z,6.73
2023-10-23T14:05:40.445Z,8.17
2023-10-23T14:08:08.379Z,5.87
2023-10-23T14:10:35.606Z,9.33
2023-10-23T14:13:03.165Z,6.50
2023-10-23T14:15:29.969Z,6.13
2023-10-23T14:17:58.952Z,8.43
2023-10-23T14:20:28.494Z,8.93
2023-10-23T14:22:55.573Z,6.57
2023-10-23T14:25:22.245Z,7.40
2023-10-23T14:27:49.249Z,8.47
2023-10-23T14:30:17.198Z,8.20
2023-10-23T14:32:44.795Z,7.33
2023-10-23T14:35:11.691Z,6.53
2023-10-23T14:37:38.464Z,6.73
2023-10-23T14:40:07.128Z,6.70
2023-10-23T14:42:34.021Z,8.50
2023-10-23T14:45:01.029Z,10.33
2023-10-23T14:47:28.025Z,6.77
2023-10-23T14:49:55.315Z,7.30
2023-10-23T14:52:22.221Z,7.27
2023-10-23T14:54:49.049Z,9.90
2023-10-23T14:57:15.974Z,5.67
2023-10-23T14:59:42.920Z,8.27
2023-10-23T15:02:10.141Z,8.53
2023-10-23T15:04:37.698Z,11.10
2023-10-23T15:07:05.142Z,9.27
2023-10-23T15:09:32.680Z,11.73
2023-10-23T15:11:59.655Z,10.93
2023-10-23T15:14:26.349Z,34.93
2023-10-23T15:16:54.608Z,14.60
2023-10-23T15:19:21.600Z,22.43
2023-10-23T15:21:48.350Z,36.20
2023-10-23T15:24:15.526Z,45.83
2023-10-23T15:26:42.298Z,15.17
2023-10-23T15:29:09.200Z,16.23
2023-10-23T15:31:36.173Z,12.07
2023-10-23T15:34:04.248Z,66.17
2023-10-23T15:36:32.616Z,89.20
2023-10-23T15:38:59.988Z,38.80
2023-10-23T15:41:27.415Z,40.27
2023-10-23T15:43:55.065Z,37.87
2023-10-23T15:46:22.281Z,76.23
2023-10-23T15:48:49.388Z,44.27
2023-10-23T15:51:16.444Z,29.30
2023-10-23T15:53:43.486Z,24.37
2023-10-23T15:56:11.438Z,10.33
2023-10-23T15:58:38.572Z,23.27
2023-10-23T16:01:06.253Z,45.03
2023-10-23T16:03:37.932Z,29.60
2023-10-23T16:06:10.374Z,68.60
2023-10-23T16:08:38.087Z,83.17
2023-10-23T16:11:05.905Z,157.43
2023-10-23T16:13:40.087Z,74.77
2023-10-23T16:16:14.999Z,150.17
2023-10-23T16:18:43.953Z,110.30
2023-10-23T16:21:13.480Z,50.33
2023-10-23T16:23:40.430Z,18.90
2023-10-23T16:26:07.359Z,109.30
2023-10-23T16:28:34.140Z,79.73
2023-10-23T16:31:01.248Z,31.03
2023-10-23T16:33:28.231Z,25.87
2023-10-23T16:35:55.171Z,65.93
2023-10-23T16:38:22.101Z,61.83
2023-10-23T16:40:49.175Z,41.63
2023-10-23T16:43:19.149Z,51.93
2023-10-23T16:45:46.126Z,34.77
2023-10-23T16:48:13.111Z,32.73
2023-10-23T16:50:39.996Z,26.40
2023-10-23T16:53:06.822Z,28.13
2023-10-23T16:55:33.844Z,25.10
2023-10-23T16:58:00.672Z,32.73
2023-10-23T17:00:28.513Z,26.57
2023-10-23T17:02:55.566Z,29.13
2023-10-23T17:05:22.592Z,33.57
2023-10-23T17:07:49.388Z,30.27
2023-10-23T17:10:18.163Z,28.50
2023-10-23T17:12:45.198Z,31.20
2023-10-23T17:15:12.060Z,39.77
2023-10-23T17:17:39.228Z,95.27
2023-10-23T17:20:09.440Z,260.17
2023-10-23T17:22:38.138Z,125.30
2023-10-23T17:25:06.148Z,86.67
2023-10-23T17:27:32.955Z,51.80
2023-10-23T17:30:00.084Z,57.00
2023-10-23T17:32:29.343Z,51.30
2023-10-23T17:34:56.003Z,34.37
2023-10-23T17:37:23.207Z,35.90
2023-10-23T17:39:50.067Z,36.20
2023-10-23T17:42:17.082Z,37.67
2023-10-23T17:44:44.006Z,31.07
2023-10-23T17:47:10.694Z,41.10
2023-10-23T17:49:37.424Z,54.00
2023-10-23T17:52:04.936Z,52.83
2023-10-23T17:54:34.125Z,45.67
2023-10-23T17:57:00.865Z,46.90
2023-10-23T17:59:27.541Z,39.10
2023-10-23T18:01:54.986Z,41.63
2023-10-23T18:04:22.016Z,36.67
2023-10-23T18:06:49.018Z,35.17
2023-10-23T18:09:15.836Z,26.63
2023-10-23T18:11:42.784Z,25.53
2023-10-23T18:14:10.242Z,25.03
2023-10-23T18:16:37.199Z,23.27
2023-10-23T18:19:04.867Z,50.60
2023-10-23T18:21:31.637Z,30.17
2023-10-23T18:23:58.532Z,31.00
2023-10-23T18:26:26.070Z,34.53
2023-10-23T18:28:53.276Z,36.00
2023-10-23T18:31:21.118Z,34.10
2023-10-23T18:33:48.205Z,29.73
2023-10-23T18:36:19.322Z,29.07
2023-10-23T18:38:47.784Z,27.33
2023-10-23T18:41:18.600Z,24.47
2023-10-23T18:43:46.635Z,19.73
2023-10-23T18:46:14.416Z,26.43
2023-10-23T18:48:42.528Z,23.20
2023-10-23T18:51:12.723Z,18.37
2023-10-23T18:53:41.257Z,18.30
2023-10-23T18:56:08.406Z,25.83
2023-10-23T18:58:35.211Z,20.83
2023-10-23T19:01:03.469Z,21.60
2023-10-23T19:03:31.351Z,20.47
2023-10-23T19:05:58.418Z,19.70
2023-10-23T19:08:26.356Z,29.53
2023-10-23T19:10:53.089Z,18.93
2023-10-23T19:13:21.059Z,17.20
2023-10-23T19:15:56.191Z,14.20
2023-10-23T19:18:23.716Z,14.20
2023-10-23T19:21:00.629Z,15.37
2023-10-23T19:23:27.886Z,13.33
2023-10-23T19:25:55.341Z,12.83
2023-10-23T19:28:23.023Z,14.80
2023-10-23T19:30:50.126Z,14.90
2023-10-23T19:33:17.436Z,19.90
2023-10-23T19:35:44.993Z,22.53
2023-10-23T19:38:13.086Z,29.03
2023-10-23T19:40:47.706Z,18.10
2023-10-23T19:43:16.098Z,13.83
2023-10-23T19:45:45.224Z,18.17
2023-10-23T19:48:13.129Z,25.77
2023-10-23T19:50:46.396Z,20.20
2023-10-23T19:53:18.295Z,16.20
2023-10-23T19:55:47.484Z,13.43
2023-10-23T19:58:16.672Z,67.17
2023-10-23T20:00:43.990Z,14.10
2023-10-23T20:03:11.521Z,17.03
2023-10-23T20:05:38.494Z,13.53
2023-10-23T20:08:05.796Z,16.20
2023-10-23T20:10:33.617Z,23.10
2023-10-23T20:13:00.809Z,18.97
2023-10-23T20:15:28.157Z,15.13
2023-10-23T20:17:56.212Z,19.03
2023-10-23T20:20:26.872Z,18.17
2023-10-23T20:22:53.784Z,15.03
2023-10-23T20:25:21.084Z,16.30
2023-10-23T20:27:48.368Z,14.63
2023-10-23T20:30:15.550Z,14.70
2023-10-23T20:32:42.524Z,13.30
2023-10-23T20:35:09.667Z,13.60
2023-10-23T20:37:36.798Z,15.10
2023-10-23T20:40:04.785Z,13.60
2023-10-23T20:42:37.402Z,10.40
2023-10-23T20:45:06.357Z,12.80
2023-10-23T20:47:34.075Z,14.10
2023-10-23T20:50:02.430Z,15.27
2023-10-23T20:52:31.051Z,12.03
2023-10-23T20:54:57.827Z,19.40
2023-10-23T20:57:25.144Z,17.77
2023-10-23T20:59:52.442Z,15.27
2023-10-23T21:02:19.426Z,14.53
2023-10-23T21:04:46.382Z,11.53
2023-10-23T21:07:13.345Z,15.03
2023-10-23T21:09:40.807Z,16.23
2023-10-23T21:12:08.325Z,15.90
2023-10-23T21:14:47.425Z,13.23
2023-10-23T21:17:15.247Z,13.60
2023-10-23T21:19:42.303Z,14.03
2023-10-23T21:22:09.262Z,14.00
2023-10-23T21:24:36.131Z,14.87
2023-10-23T21:27:04.950Z,14.30
2023-10-23T21:29:32.308Z,13.30
2023-10-23T21:32:00.838Z,11.33
2023-10-23T21:34:27.907Z,16.70
2023-10-23T21:36:54.871Z,13.47
2023-10-23T21:39:21.529Z,12.57
2023-10-23T21:41:48.149Z,12.30
2023-10-23T21:44:14.738Z,12.80
2023-10-23T21:46:41.474Z,15.07
2023-10-23T21:49:11.255Z,12.83
2023-10-23T21:51:38.908Z,17.87
2023-10-23T21:54:06.057Z,12.70
2023-10-23T21:56:38.517Z,11.03
2023-10-23T21:59:21.026Z,20.97
2023-10-23T22:01:50.409Z,12.70
2023-10-23T22:04:19.716Z,11.90
2023-10-23T22:06:46.898Z,14.13
2023-10-23T22:09:14.739Z,11.80
2023-10-23T22:11:42.106Z,12.70
2023-10-23T22:14:09.559Z,14.10
2023-10-23T22:16:36.396Z,16.00
2023-10-23T22:19:03.596Z,19.77
2023-10-23T22:21:30.512Z,16.60
2023-10-23T22:23:57.384Z,8.50
2023-10-23T22:26:24.135Z,14.93
2023-10-23T22:28:50.789Z,22.53
2023-10-23T22:31:17.415Z,20.27
2023-10-23T22:33:44.343Z,19.10
2023-10-23T22:36:11.248Z,18.90
2023-10-23T22:38:38.064Z,18.97
2023-10-23T22:41:05.331Z,18.07
2023-10-23T22:43:32.283Z,23.93
2023-10-23T22:46:03.731Z,22.90
2023-10-23T22:48:31.542Z,24.63
2023-10-23T22:50:58.649Z,20.63
2023-10-23T22:53:25.725Z,16.70
2023-10-23T22:55:55.291Z,24.87
2023-10-23T22:58:33.203Z,22.17
2023-10-23T23:01:00.690Z,13.30
2023-10-23T23:03:27.916Z,17.57
2023-10-23T23:06:01.063Z,11.43
2023-10-23T23:08:30.953Z,9.53
2023-10-23T23:10:58.275Z,10.77
2023-10-23T23:13:25.338Z,7.43
2023-10-23T23:15:52.924Z,8.70
2023-10-23T23:18:21.487Z,11.23
2023-10-23T23:20:50.834Z,10.33
2023-10-23T23:23:17.756Z,12.67
2023-10-23T23:25:44.431Z,11.57
2023-10-23T23:28:11.153Z,12.40
2023-10-23T23:30:37.949Z,15.57
2023-10-23T23:33:04.815Z,11.70
2023-10-23T23:35:31.504Z,17.43
2023-10-23T23:37:58.934Z,24.20
2023-10-23T23:40:25.537Z,20.20
2023-10-23T23:42:52.290Z,18.60
2023-10-23T23:45:19.354Z,19.37
2023-10-23T23:47:46.298Z,21.10
2023-10-23T23:50:13.205Z,18.73
2023-10-23T23:52:40.117Z,21.63
2023-10-23T23:55:07.233Z,16.27
2023-10-23T23:57:35.110Z,18.93
